createdAt,value
2022-10-13T00:01:23.747Z,9.10
2022-10-13T00:03:51.770Z,9.95
2022-10-13T00:06:21.163Z,9.20
2022-10-13T00:08:50.881Z,10.13
2022-10-13T00:11:23.577Z,9.55
2022-10-13T00:13:51.424Z,8.70
2022-10-13T00:16:21.470Z,8.90
2022-10-13T00:18:49.792Z,9.27
2022-10-13T00:21:25.003Z,9.90
2022-10-13T00:23:56.179Z,9.27
2022-10-13T00:26:25.382Z,9.00
2022-10-13T00:28:53.890Z,8.20
2022-10-13T00:31:26.712Z,8.77
2022-10-13T00:33:54.807Z,8.18
2022-10-13T00:36:25.768Z,10.52
2022-10-13T00:38:53.948Z,8.13
2022-10-13T00:41:21.864Z,8.10
2022-10-13T00:43:49.535Z,9.65
2022-10-13T00:46:17.054Z,8.82
2022-10-13T00:48:46.130Z,8.60
2022-10-13T00:51:18.699Z,8.60
2022-10-13T00:53:47.513Z,9.10
2022-10-13T00:56:18.105Z,9.82
2022-10-13T00:58:47.356Z,10.02
2022-10-13T01:01:17.200Z,11.68
2022-10-13T01:03:47.883Z,12.55
2022-10-13T01:06:19.777Z,10.60
2022-10-13T01:08:49.916Z,13.13
2022-10-13T01:12:05.125Z,10.25
2022-10-13T01:15:10.427Z,9.18
2022-10-13T01:17:52.095Z,10.82
2022-10-13T01:20:28.903Z,10.93
2022-10-13T01:23:14.456Z,13.90
2022-10-13T01:26:27.730Z,10.80
2022-10-13T01:28:57.688Z,13.98
2022-10-13T01:31:58.009Z,12.30
2022-10-13T01:34:46.254Z,13.43
2022-10-13T01:37:36.024Z,15.38
2022-10-13T01:40:28.804Z,11.93
2022-10-13T01:43:07.974Z,13.73
2022-10-13T01:45:46.160Z,12.23
2022-10-13T01:48:14.590Z,13.23
2022-10-13T01:50:42.441Z,11.40
2022-10-13T01:53:11.520Z,12.52
2022-10-13T01:55:53.189Z,11.70
2022-10-13T01:58:21.025Z,11.68
2022-10-13T02:01:27.295Z,15.88
2022-10-13T02:04:00.459Z,15.00
2022-10-13T02:06:44.556Z,13.70
2022-10-13T02:09:35.168Z,12.13
2022-10-13T02:12:12.124Z,13.93
2022-10-13T02:14:42.098Z,13.80
2022-10-13T02:17:13.284Z,12.45
2022-10-13T02:19:40.634Z,12.52
2022-10-13T02:22:13.388Z,14.75
2022-10-13T02:24:40.970Z,14.25
2022-10-13T02:27:10.611Z,13.90
2022-10-13T02:29:52.983Z,12.85
2022-10-13T02:32:21.516Z,12.63
2022-10-13T02:34:49.673Z,12.43
2022-10-13T02:37:17.076Z,12.82
2022-10-13T02:39:44.321Z,12.70
2022-10-13T02:42:11.914Z,12.77
2022-10-13T02:44:41.252Z,12.20
2022-10-13T02:47:08.532Z,12.60
2022-10-13T02:49:37.996Z,15.48
2022-10-13T02:52:05.240Z,12.27
2022-10-13T02:54:35.362Z,11.27
2022-10-13T02:57:02.608Z,13.82
2022-10-13T02:59:32.262Z,14.18
2022-10-13T03:02:02.064Z,12.40
2022-10-13T03:04:31.565Z,12.23
2022-10-13T03:06:59.019Z,12.48
2022-10-13T03:09:26.486Z,10.88
2022-10-13T03:11:53.816Z,14.50
2022-10-13T03:14:21.128Z,13.40
2022-10-13T03:16:52.948Z,12.90
2022-10-13T03:19:20.490Z,13.20
2022-10-13T03:21:47.935Z,12.00
2022-10-13T03:24:17.659Z,11.70
2022-10-13T03:26:44.942Z,13.77
2022-10-13T03:29:19.257Z,11.35
2022-10-13T03:31:46.681Z,12.52
2022-10-13T03:34:16.468Z,11.98
2022-10-13T03:36:46.027Z,11.35
2022-10-13T03:39:13.803Z,11.10
2022-10-13T03:41:43.526Z,12.20
2022-10-13T03:44:14.223Z,16.60
2022-10-13T03:46:43.610Z,15.90
2022-10-13T03:49:14.279Z,13.40
2022-10-13T03:51:43.925Z,12.57
2022-10-13T03:54:12.788Z,13.30
2022-10-13T03:56:40.488Z,11.23
2022-10-13T03:59:10.831Z,14.27
2022-10-13T04:01:38.968Z,14.30
2022-10-13T04:04:09.224Z,13.60
2022-10-13T04:06:36.449Z,14.82
2022-10-13T04:09:04.394Z,14.10
2022-10-13T04:11:34.154Z,13.43
2022-10-13T04:14:03.772Z,15.20
2022-10-13T04:16:31.731Z,12.90
2022-10-13T04:19:04.742Z,14.73
2022-10-13T04:21:34.523Z,11.90
2022-10-13T04:24:02.836Z,14.63
2022-10-13T04:26:32.394Z,14.73
2022-10-13T04:29:00.255Z,15.25
2022-10-13T04:31:29.308Z,13.25
2022-10-13T04:33:59.184Z,13.10
2022-10-13T04:36:29.201Z,12.52
2022-10-13T04:38:56.756Z,13.38
2022-10-13T04:41:26.311Z,11.43
2022-10-13T04:43:54.264Z,17.23
2022-10-13T04:46:26.694Z,16.27
2022-10-13T04:48:56.335Z,14.90
2022-10-13T04:51:27.579Z,12.38
2022-10-13T04:54:05.521Z,13.18
2022-10-13T04:56:35.255Z,13.20
2022-10-13T04:59:05.826Z,13.80
2022-10-13T05:01:34.135Z,15.23
2022-10-13T05:04:02.475Z,14.25
2022-10-13T05:06:35.197Z,11.77
2022-10-13T05:09:03.956Z,13.70
2022-10-13T05:11:32.092Z,13.55
2022-10-13T05:14:01.116Z,15.55
2022-10-13T05:16:29.336Z,16.08
2022-10-13T05:18:56.790Z,13.15
2022-10-13T05:21:26.930Z,15.75
2022-10-13T05:23:56.296Z,13.65
2022-10-13T05:26:28.874Z,12.75
2022-10-13T05:29:00.559Z,14.73
2022-10-13T05:33:58.200Z,15.00
2022-10-13T05:36:26.781Z,20.23
2022-10-13T05:38:57.148Z,11.60
2022-10-13T05:41:25.819Z,12.30
2022-10-13T05:43:57.835Z,14.25
2022-10-13T05:46:28.083Z,20.88
2022-10-13T05:48:57.774Z,18.75
2022-10-13T05:51:28.223Z,11.45
2022-10-13T05:54:08.557Z,14.90
2022-10-13T05:56:41.199Z,15.05
2022-10-13T05:59:11.093Z,12.63
2022-10-13T06:01:42.897Z,11.45
2022-10-13T06:04:15.113Z,13.45
2022-10-13T06:06:42.448Z,14.73
2022-10-13T06:09:12.766Z,11.25
2022-10-13T06:11:40.073Z,12.93
2022-10-13T06:14:07.376Z,9.38
2022-10-13T06:16:37.023Z,14.00
2022-10-13T06:19:08.036Z,14.35
2022-10-13T06:21:35.865Z,13.85
2022-10-13T06:24:08.641Z,12.85
2022-10-13T06:26:35.871Z,12.68
2022-10-13T06:29:05.587Z,14.50
2022-10-13T06:31:32.978Z,12.40
2022-10-13T06:34:02.800Z,12.82
2022-10-13T06:36:30.125Z,14.50
2022-10-13T06:38:57.528Z,10.32
2022-10-13T06:41:24.795Z,13.15
2022-10-13T06:43:56.899Z,14.75
2022-10-13T06:46:25.524Z,13.27
2022-10-13T06:48:55.668Z,11.30
2022-10-13T06:51:22.915Z,10.63
2022-10-13T06:53:52.441Z,10.50
2022-10-13T06:56:19.707Z,9.65
2022-10-13T06:58:47.107Z,14.57
2022-10-13T07:01:15.030Z,19.23
2022-10-13T07:03:42.338Z,13.70
2022-10-13T07:06:10.544Z,23.67
2022-10-13T07:08:40.359Z,25.60
2022-10-13T07:11:15.420Z,21.58
2022-10-13T07:13:46.966Z,15.27
2022-10-13T07:16:15.703Z,20.02
2022-10-13T07:18:43.056Z,26.00
2022-10-13T07:21:10.488Z,31.92
2022-10-13T07:23:40.130Z,29.00
2022-10-13T07:26:09.050Z,16.40
2022-10-13T07:28:36.833Z,14.93
2022-10-13T07:31:10.985Z,13.23
2022-10-13T07:33:38.763Z,23.90
2022-10-13T07:36:06.520Z,24.95
2022-10-13T07:38:33.961Z,25.27
2022-10-13T07:41:02.691Z,22.02
2022-10-13T07:43:30.416Z,21.88
2022-10-13T07:46:02.012Z,26.02
2022-10-13T07:50:59.069Z,15.60
2022-10-13T07:53:26.382Z,21.25
2022-10-13T07:55:53.672Z,28.52
2022-10-13T07:58:23.373Z,16.70
2022-10-13T08:00:59.520Z,14.75
2022-10-13T08:03:29.999Z,14.73
2022-10-13T08:05:59.942Z,27.50
2022-10-13T08:08:30.657Z,20.52
2022-10-13T08:11:04.732Z,17.13
2022-10-13T08:13:32.460Z,24.77
2022-10-13T08:16:01.366Z,24.40
2022-10-13T08:18:31.397Z,30.52
2022-10-13T08:23:50.817Z,20.13
2022-10-13T08:26:29.674Z,16.35
2022-10-13T08:31:46.689Z,12.63
2022-10-13T08:34:14.167Z,14.10
2022-10-13T08:36:41.554Z,18.02
2022-10-13T08:39:08.908Z,13.50
2022-10-13T08:41:43.850Z,18.33
2022-10-13T08:47:23.916Z,16.23
2022-10-13T08:49:52.710Z,51.92
2022-10-13T08:52:29.280Z,37.30
2022-10-13T08:54:59.302Z,35.65
2022-10-13T08:57:26.624Z,16.90
2022-10-13T08:59:54.411Z,21.88
2022-10-13T09:02:30.881Z,17.95
2022-10-13T09:05:02.395Z,21.67
2022-10-13T09:10:02.084Z,13.13
2022-10-13T09:12:33.925Z,16.98
2022-10-13T09:15:05.793Z,16.90
2022-10-13T09:17:36.745Z,12.93
2022-10-13T09:20:19.121Z,17.00
2022-10-13T09:23:04.972Z,13.48
2022-10-13T09:25:48.379Z,24.58
2022-10-13T09:28:31.742Z,17.95
2022-10-13T09:31:05.102Z,14.18
2022-10-13T09:33:37.301Z,20.85
2022-10-13T09:36:06.330Z,23.75
2022-10-13T09:38:35.002Z,17.98
2022-10-13T09:41:05.361Z,21.60
2022-10-13T09:43:35.504Z,11.98
2022-10-13T09:46:32.757Z,14.68
2022-10-13T09:49:41.830Z,13.45
2022-10-13T09:52:17.527Z,13.38
2022-10-13T09:54:52.259Z,14.25
2022-10-13T09:57:23.216Z,19.02
2022-10-13T10:00:04.352Z,19.23
2022-10-13T10:02:49.577Z,11.73
2022-10-13T10:05:34.161Z,14.25
2022-10-13T10:08:11.529Z,17.00
2022-10-13T10:10:43.697Z,12.32
2022-10-13T10:13:13.169Z,12.60
2022-10-13T10:15:49.806Z,13.43
2022-10-13T10:18:37.837Z,12.43
2022-10-13T10:21:27.046Z,12.88
2022-10-13T10:24:09.232Z,14.20
2022-10-13T10:26:39.330Z,13.43
2022-10-13T10:29:22.291Z,11.65
2022-10-13T10:32:04.874Z,15.93
2022-10-13T10:34:49.355Z,15.85
2022-10-13T10:37:46.511Z,12.07
2022-10-13T10:41:15.264Z,11.73
2022-10-13T10:43:51.353Z,14.48
2022-10-13T10:46:29.167Z,14.40
2022-10-13T10:49:03.949Z,14.50
2022-10-13T10:51:39.039Z,13.27
2022-10-13T10:54:33.854Z,19.98
2022-10-13T10:57:31.477Z,13.35
2022-10-13T11:00:09.989Z,11.70
2022-10-13T11:02:58.832Z,12.77
2022-10-13T11:05:30.812Z,12.05
2022-10-13T11:07:59.213Z,31.15
2022-10-13T11:10:30.552Z,18.23
2022-10-13T11:12:57.745Z,13.80
2022-10-13T11:15:31.128Z,12.32
2022-10-13T11:18:00.901Z,15.07
2022-10-13T11:20:34.281Z,12.13
2022-10-13T11:23:01.464Z,11.65
2022-10-13T11:25:39.980Z,12.25
2022-10-13T11:28:22.578Z,11.63
2022-10-13T11:31:26.525Z,14.68
2022-10-13T11:33:59.198Z,11.43
2022-10-13T11:36:39.459Z,13.10
2022-10-13T11:39:28.424Z,10.02
2022-10-13T11:42:36.809Z,12.18
2022-10-13T11:45:15.836Z,17.88
2022-10-13T11:47:54.112Z,12.15
2022-10-13T11:50:26.538Z,16.92
2022-10-13T11:53:07.634Z,19.45
2022-10-13T11:55:54.181Z,25.65
2022-10-13T11:58:25.747Z,21.38
2022-10-13T12:03:34.345Z,16.15
2022-10-13T12:06:07.779Z,13.93
2022-10-13T12:08:37.943Z,10.80
2022-10-13T12:11:07.721Z,11.63
2022-10-13T12:13:36.956Z,12.07
2022-10-13T12:16:08.139Z,11.07
2022-10-13T12:18:40.232Z,13.77
2022-10-13T12:21:11.817Z,10.55
2022-10-13T12:26:09.329Z,13.23
2022-10-13T12:28:54.356Z,15.98
2022-10-13T12:31:23.304Z,13.68
2022-10-13T12:34:01.748Z,18.95
2022-10-13T12:36:38.012Z,15.95
2022-10-13T12:39:10.808Z,33.88
2022-10-13T12:41:43.614Z,13.75
2022-10-13T12:44:23.069Z,13.43
2022-10-13T12:46:53.170Z,14.18
2022-10-13T12:49:25.364Z,11.75
2022-10-13T12:52:14.936Z,11.35
2022-10-13T12:54:54.788Z,12.15
2022-10-13T12:57:38.324Z,12.27
2022-10-13T13:00:20.917Z,11.50
2022-10-13T13:02:56.456Z,11.32
2022-10-13T13:05:32.646Z,13.80
2022-10-13T13:08:00.952Z,10.55
2022-10-13T13:10:31.209Z,9.60
2022-10-13T13:13:16.665Z,10.45
2022-10-13T13:15:44.086Z,12.82
2022-10-13T13:18:39.865Z,10.13
2022-10-13T13:21:09.980Z,14.43
2022-10-13T13:23:37.507Z,18.38
2022-10-13T13:26:14.793Z,14.48
2022-10-13T13:28:48.773Z,13.73
2022-10-13T13:31:18.467Z,13.68
2022-10-13T13:33:46.623Z,11.18
2022-10-13T13:36:19.748Z,11.95
2022-10-13T13:38:49.886Z,9.07
2022-10-13T13:41:19.926Z,11.20
2022-10-13T13:43:49.841Z,10.65
2022-10-13T13:46:22.700Z,10.65
2022-10-13T13:48:54.820Z,12.20
2022-10-13T13:51:27.712Z,13.52
2022-10-13T13:53:54.989Z,11.27
2022-10-13T13:56:22.283Z,10.85
2022-10-13T13:58:49.543Z,11.20
2022-10-13T14:01:16.907Z,14.25
2022-10-13T14:03:44.327Z,55.88
2022-10-13T14:06:18.905Z,25.55
2022-10-13T14:08:46.783Z,71.78
2022-10-13T14:11:14.111Z,28.75
2022-10-13T14:13:43.577Z,13.88
2022-10-13T14:16:16.901Z,13.20
2022-10-13T14:18:46.792Z,10.80
2022-10-13T14:21:16.435Z,13.32
2022-10-13T14:23:47.068Z,11.60
2022-10-13T14:26:15.575Z,13.67
2022-10-13T14:28:44.624Z,10.90
2022-10-13T14:31:12.065Z,12.30
2022-10-13T14:33:39.349Z,10.63
2022-10-13T14:36:07.344Z,10.02
2022-10-13T14:38:35.106Z,9.50
2022-10-13T14:41:04.662Z,10.63
2022-10-13T14:43:32.264Z,10.57
2022-10-13T14:46:09.511Z,11.25
2022-10-13T14:48:39.930Z,22.30
2022-10-13T14:51:09.695Z,13.85
2022-10-13T14:53:39.679Z,12.98
2022-10-13T14:56:29.995Z,11.40
2022-10-13T14:59:02.228Z,15.52
2022-10-13T15:01:33.506Z,14.68
2022-10-13T15:04:04.665Z,12.18
2022-10-13T15:06:34.692Z,12.18
2022-10-13T15:09:02.077Z,11.80
2022-10-13T15:11:29.406Z,12.43
2022-10-13T15:13:56.721Z,13.07
2022-10-13T15:16:29.649Z,10.43
2022-10-13T15:18:57.176Z,11.55
2022-10-13T15:21:26.968Z,10.90
2022-10-13T15:23:56.337Z,11.02
2022-10-13T15:26:26.004Z,11.32
2022-10-13T15:28:53.845Z,12.18
2022-10-13T15:31:24.474Z,10.05
2022-10-13T15:33:53.587Z,11.50
2022-10-13T15:36:22.521Z,25.98
2022-10-13T15:38:50.552Z,21.02
2022-10-13T15:41:18.575Z,19.70
2022-10-13T15:43:45.871Z,16.98
2022-10-13T15:46:21.718Z,12.90
2022-10-13T15:48:53.334Z,13.98
2022-10-13T15:53:49.124Z,12.15
2022-10-13T15:56:20.713Z,12.07
2022-10-13T16:01:15.226Z,14.82
2022-10-13T16:03:44.936Z,13.00
2022-10-13T16:06:15.716Z,12.25
2022-10-13T16:08:45.196Z,11.38
2022-10-13T16:11:17.443Z,11.82
2022-10-13T16:13:51.617Z,12.77
2022-10-13T16:16:19.600Z,12.60
2022-10-13T16:18:51.309Z,20.80
2022-10-13T16:21:23.954Z,19.33
2022-10-13T16:23:53.875Z,17.60
2022-10-13T16:26:24.059Z,14.65
2022-10-13T16:28:56.800Z,13.52
2022-10-13T16:31:29.112Z,12.07
2022-10-13T16:33:58.646Z,11.25
2022-10-13T16:36:26.062Z,13.45
2022-10-13T16:38:56.679Z,12.20
2022-10-13T16:41:24.001Z,14.53
2022-10-13T16:43:51.272Z,13.70
2022-10-13T16:46:20.316Z,12.07
2022-10-13T16:48:50.094Z,13.52
2022-10-13T16:51:23.030Z,13.35
2022-10-13T16:53:52.947Z,13.93
2022-10-13T16:56:22.397Z,14.32
2022-10-13T16:59:00.786Z,14.10
2022-10-13T17:01:28.992Z,14.18
2022-10-13T17:03:58.920Z,15.82
2022-10-13T17:06:30.506Z,19.33
2022-10-13T17:11:29.922Z,16.92
2022-10-13T17:14:00.536Z,15.95
2022-10-13T17:16:28.280Z,15.38
2022-10-13T17:18:56.017Z,17.55
2022-10-13T17:21:25.467Z,17.25
2022-10-13T17:23:55.728Z,17.92
2022-10-13T17:26:23.107Z,18.83
2022-10-13T17:28:52.678Z,18.00
2022-10-13T17:31:23.184Z,17.45
2022-10-13T17:33:51.755Z,21.77
2022-10-13T17:36:24.148Z,17.67
2022-10-13T17:38:55.635Z,19.98
2022-10-13T17:41:23.831Z,14.35
2022-10-13T17:43:52.351Z,21.63
2022-10-13T17:46:40.801Z,19.17
2022-10-13T17:49:11.598Z,19.55
2022-10-13T17:51:40.441Z,24.55
2022-10-13T17:54:15.583Z,25.42
2022-10-13T17:56:45.179Z,24.30
2022-10-13T17:59:13.551Z,115.68
2022-10-13T18:01:44.560Z,72.63
2022-10-13T18:04:15.193Z,47.92
2022-10-13T18:06:44.023Z,25.10
2022-10-13T18:09:14.734Z,26.92
2022-10-13T18:11:48.727Z,26.65
2022-10-13T18:14:21.506Z,25.70
2022-10-13T18:16:49.824Z,42.92
2022-10-13T18:19:19.521Z,66.80
2022-10-13T18:21:48.912Z,53.55
2022-10-13T18:24:18.632Z,60.22
2022-10-13T18:26:46.255Z,49.97
2022-10-13T18:29:13.803Z,32.67
2022-10-13T18:31:44.377Z,29.08
2022-10-13T18:34:18.495Z,27.80
2022-10-13T18:36:54.060Z,26.92
2022-10-13T18:39:25.604Z,27.95
2022-10-13T18:44:21.832Z,22.77
2022-10-13T18:46:50.884Z,22.40
2022-10-13T18:49:21.444Z,23.60
2022-10-13T18:51:51.216Z,22.45
2022-10-13T18:54:20.635Z,29.48
2022-10-13T18:56:47.916Z,78.05
2022-10-13T18:59:17.770Z,54.90
2022-10-13T19:01:45.393Z,59.45
2022-10-13T19:04:14.729Z,52.40
2022-10-13T19:06:42.176Z,49.63
2022-10-13T19:09:13.186Z,36.67
2022-10-13T19:11:45.372Z,85.07
2022-10-13T19:14:14.891Z,44.15
2022-10-13T19:16:44.098Z,31.55
2022-10-13T19:19:14.272Z,26.58
2022-10-13T19:21:44.112Z,62.47
2022-10-13T19:24:11.725Z,30.42
2022-10-13T19:26:39.420Z,26.10
2022-10-13T19:29:09.875Z,32.80
2022-10-13T19:31:38.538Z,32.00
2022-10-13T19:34:08.635Z,24.30
2022-10-13T19:36:45.091Z,24.58
2022-10-13T19:39:18.516Z,23.92
2022-10-13T19:41:46.853Z,23.17
2022-10-13T19:44:18.398Z,21.85
2022-10-13T19:49:16.214Z,21.67
2022-10-13T19:51:43.692Z,23.15
2022-10-13T19:54:11.773Z,26.83
2022-10-13T19:56:41.855Z,23.65
2022-10-13T19:59:09.208Z,23.58
2022-10-13T20:01:42.432Z,23.77
2022-10-13T20:04:12.415Z,25.63
2022-10-13T20:06:39.889Z,23.33
2022-10-13T20:09:09.315Z,20.42
2022-10-13T20:11:36.675Z,23.40
2022-10-13T20:14:06.412Z,24.42
2022-10-13T20:16:33.888Z,21.73
2022-10-13T20:19:01.621Z,22.38
2022-10-13T20:21:29.628Z,25.67
2022-10-13T20:23:57.299Z,22.55
2022-10-13T20:26:29.851Z,24.27
2022-10-13T20:28:59.949Z,21.83
2022-10-13T20:31:27.317Z,21.73
2022-10-13T20:33:56.039Z,22.85
2022-10-13T20:36:26.747Z,22.67
2022-10-13T20:38:54.893Z,20.47
2022-10-13T20:41:26.099Z,25.17
2022-10-13T20:43:57.906Z,20.98
2022-10-13T20:46:27.735Z,20.63
2022-10-13T20:49:10.419Z,21.67
2022-10-13T20:51:39.651Z,22.60
2022-10-13T20:54:07.652Z,19.67
2022-10-13T20:56:35.771Z,18.67
2022-10-13T20:59:04.880Z,21.50
2022-10-13T21:01:35.028Z,17.38
2022-10-13T21:04:02.673Z,18.83
2022-10-13T21:06:30.106Z,18.75
2022-10-13T21:08:57.397Z,18.13
2022-10-13T21:11:25.028Z,17.63
2022-10-13T21:13:55.609Z,19.38
2022-10-13T21:16:31.982Z,17.90
2022-10-13T21:18:59.549Z,20.40
2022-10-13T21:21:29.524Z,17.52
2022-10-13T21:23:58.976Z,17.35
2022-10-13T21:26:28.672Z,21.10
2022-10-13T21:28:59.148Z,19.42
2022-10-13T21:31:29.922Z,18.23
2022-10-13T21:33:57.755Z,18.60
2022-10-13T21:36:30.556Z,16.42
2022-10-13T21:39:02.478Z,16.48
2022-10-13T21:41:30.120Z,17.38
2022-10-13T21:43:57.789Z,17.17
2022-10-13T21:46:28.274Z,17.38
2022-10-13T21:49:03.016Z,18.70
2022-10-13T21:51:38.553Z,17.42
2022-10-13T21:54:11.756Z,18.38
2022-10-13T21:56:40.271Z,17.02
2022-10-13T21:59:08.849Z,22.58
2022-10-13T22:01:36.136Z,19.33
2022-10-13T22:04:06.277Z,17.92
2022-10-13T22:06:34.469Z,19.73
2022-10-13T22:09:05.030Z,21.55
2022-10-13T22:11:35.369Z,15.55
2022-10-13T22:14:05.722Z,16.75
2022-10-13T22:16:39.341Z,16.00
2022-10-13T22:19:10.606Z,18.75
2022-10-13T22:21:44.433Z,17.33
2022-10-13T22:24:19.898Z,21.50
2022-10-13T22:26:48.565Z,17.17
2022-10-13T22:29:22.970Z,16.20
2022-10-13T22:31:54.752Z,15.65
2022-10-13T22:34:24.473Z,14.45
2022-10-13T22:36:52.157Z,16.48
2022-10-13T22:39:22.060Z,17.92
2022-10-13T22:41:53.948Z,15.10
2022-10-13T22:44:23.557Z,15.25
2022-10-13T22:46:53.275Z,19.92
2022-10-13T22:49:20.510Z,17.23
2022-10-13T22:51:47.744Z,20.02
2022-10-13T22:54:14.979Z,17.85
2022-10-13T22:56:44.665Z,19.48
2022-10-13T22:59:12.920Z,18.33
2022-10-13T23:01:42.555Z,17.67
2022-10-13T23:04:12.244Z,15.38
2022-10-13T23:06:41.862Z,15.02
2022-10-13T23:09:13.193Z,18.60
2022-10-13T23:11:40.848Z,19.83
2022-10-13T23:14:13.182Z,17.27
2022-10-13T23:16:42.559Z,17.55
2022-10-13T23:19:09.824Z,19.27
2022-10-13T23:21:40.197Z,17.10
2022-10-13T23:24:08.192Z,18.50
2022-10-13T23:26:35.479Z,15.75
2022-10-13T23:29:04.565Z,18.90
2022-10-13T23:31:32.050Z,17.38
2022-10-13T23:34:01.769Z,12.82
2022-10-13T23:36:31.359Z,17.92
2022-10-13T23:39:05.708Z,14.90
2022-10-13T23:41:33.257Z,18.13
2022-10-13T23:44:00.800Z,15.10
2022-10-13T23:46:28.416Z,15.07
2022-10-13T23:48:56.159Z,17.60
2022-10-13T23:51:27.833Z,19.48
2022-10-13T23:56:23.061Z,17.27
2022-10-13T23:58:53.327Z,15.10
